Time;durP1;ratioP1;P1;durP2;ratioP2;P2;SDS_P1;SDS_P2;PMS_P1;PMS_P2;Temp;Humidity;BMP_temperature;BMP_pressure;BME280_temperature;BME280_humidity;BME280_pressure;Samples;Min_cycle;Max_cycle;Signal;HPM_P1;HPM_P2
2022/05/03 00:01:02;;;;;;;585.70;308.23;;;;;;;11.28;85.55;96042.75;5085134;28;20052;-79
2022/05/03 00:03:36;;;;;;;578.40;293.10;;;;;;;11.27;85.39;96037.59;5084780;28;20123;-80
2022/05/03 00:06:11;;;;;;;654.72;535.17;;;;;;;11.38;85.14;96038.81;5083208;28;20456;-79
2022/05/03 00:08:43;;;;;;;617.22;389.05;;;;;;;11.40;84.55;96036.56;5088404;28;20123;-81
2022/05/03 00:11:16;;;;;;;612.67;349.83;;;;;;;11.36;84.54;96032.91;5088359;28;20044;-79
2022/05/03 00:13:46;;;;;;;446.25;233.70;;;;;;;11.30;84.95;96031.50;5089711;28;20410;-80
2022/05/03 00:16:14;;;;;;;628.53;365.65;;;;;;;11.25;85.28;96035.22;5087968;28;20055;-79
2022/05/03 00:18:42;;;;;;;624.47;351.38;;;;;;;11.17;85.17;96034.16;5089223;28;20119;-79
2022/05/03 00:21:11;;;;;;;623.30;347.27;;;;;;;11.15;85.35;96036.41;5088161;28;20040;-80
2022/05/03 00:23:39;;;;;;;626.65;352.88;;;;;;;11.05;85.19;96028.59;5089152;28;20055;-80
2022/05/03 00:26:06;;;;;;;616.78;327.90;;;;;;;10.97;85.39;96029.44;5089014;28;20043;-79
2022/05/03 00:28:33;;;;;;;601.58;316.40;;;;;;;10.93;85.53;96028.50;5088123;28;20056;-80
2022/05/03 00:31:01;;;;;;;610.40;328.45;;;;;;;10.93;85.94;96026.56;5089160;28;20063;-79
2022/05/03 00:33:32;;;;;;;610.13;324.55;;;;;;;10.97;85.77;96018.56;5088233;28;20043;-81
2022/05/03 00:35:59;;;;;;;611.53;326.02;;;;;;;10.97;85.40;96024.00;5089413;28;20496;-80
2022/05/03 00:38:25;;;;;;;604.70;319.90;;;;;;;10.97;85.61;96018.56;5088276;28;20051;-80
2022/05/03 00:40:58;;;;;;;609.40;327.38;;;;;;;10.96;85.37;96019.66;5089014;28;20051;-80
2022/05/03 00:43:34;;;;;;;602.38;315.63;;;;;;;10.93;85.51;96018.41;5089003;28;20048;-79
2022/05/03 00:46:06;;;;;;;599.03;313.67;;;;;;;10.93;85.25;96020.34;5088461;28;20059;-79
2022/05/03 00:49:05;;;;;;;594.55;301.45;;;;;;;10.90;85.07;96010.06;5068599;28;20051;-79
2022/05/03 00:51:44;;;;;;;588.55;297.35;;;;;;;10.89;85.05;96012.00;5059888;28;20045;-79
2022/05/03 00:54:19;;;;;;;602.80;307.25;;;;;;;10.88;85.27;96010.41;5067903;28;20081;-79
2022/05/03 00:57:10;;;;;;;595.17;300.73;;;;;;;10.86;85.06;96006.44;5068480;28;20392;-80
2022/05/03 00:59:57;;;;;;;594.72;303.40;;;;;;;10.83;85.06;96004.34;5061073;28;20048;-80
2022/05/03 01:02:29;;;;;;;599.83;310.25;;;;;;;10.81;85.18;96006.63;5068015;28;20048;-81
2022/05/03 01:05:04;;;;;;;599.75;321.95;;;;;;;10.75;85.38;96000.53;5067852;28;20048;-78
2022/05/03 01:07:35;;;;;;;611.40;329.20;;;;;;;10.75;85.81;96010.63;5060042;28;20055;-80
2022/05/03 01:10:05;;;;;;;592.60;341.67;;;;;;;10.73;85.94;96002.78;5067609;28;20074;-78
2022/05/03 01:12:49;;;;;;;612.72;352.45;;;;;;;10.75;86.21;96005.19;5067365;28;20052;-81
2022/05/03 01:15:20;;;;;;;597.97;317.33;;;;;;;10.74;85.70;96001.66;5067940;28;20135;-80
2022/05/03 01:17:52;;;;;;;608.38;309.02;;;;;;;10.73;85.71;96007.44;5081444;28;20521;-79
2022/05/03 01:20:30;;;;;;;610.75;311.60;;;;;;;10.69;85.25;96005.38;5087645;28;20431;-79
2022/05/03 01:23:25;;;;;;;614.78;319.58;;;;;;;10.66;85.66;96003.31;5087590;28;20036;-79
2022/05/03 01:26:11;;;;;;;613.83;306.75;;;;;;;10.64;85.46;96005.53;5087875;28;20044;-79
2022/05/03 01:28:56;;;;;;;600.00;295.35;;;;;;;10.64;85.75;96007.47;5087861;28;20047;-80
2022/05/03 01:31:24;;;;;;;598.05;295.40;;;;;;;10.63;85.88;96006.69;5086757;28;20131;-77
2022/05/03 01:33:51;;;;;;;608.33;312.88;;;;;;;10.66;85.48;96008.75;5088190;28;20083;-78
2022/05/03 01:36:28;;;;;;;605.78;307.17;;;;;;;10.65;85.19;96011.81;5087236;28;20068;-78
2022/05/03 01:39:02;;;;;;;607.10;305.42;;;;;;;10.64;85.21;96002.81;5087736;28;20055;-78
2022/05/03 01:41:42;;;;;;;607.22;311.95;;;;;;;10.61;84.92;96011.66;5087376;28;20098;-80
2022/05/03 01:44:27;;;;;;;619.25;318.52;;;;;;;10.61;85.11;95999.97;5086388;28;20044;-79
2022/05/03 01:46:59;;;;;;;601.70;301.05;;;;;;;10.62;84.43;96007.00;5088014;28;20048;-79
2022/05/03 01:53:03;;;;;;;605.20;312.15;;;;;;;10.42;83.54;96003.88;5086941;28;20047;-80
2022/05/03 01:55:52;;;;;;;593.38;294.20;;;;;;;10.33;84.08;96005.00;5037029;28;20068;-80
2022/05/03 01:58:30;;;;;;;587.85;295.92;;;;;;;10.28;83.69;96013.34;5086429;28;20152;-81
2022/05/03 02:01:04;;;;;;;602.60;298.65;;;;;;;10.23;83.63;96005.31;5087411;28;20048;-78
2022/05/03 02:03:34;;;;;;;583.67;272.80;;;;;;;10.19;83.60;96006.00;5087007;28;20051;-78
2022/05/03 02:06:03;;;;;;;583.08;281.70;;;;;;;10.20;83.68;96004.06;5087032;28;20036;-79
2022/05/03 02:08:39;;;;;;;588.80;279.48;;;;;;;10.14;83.92;96008.88;5087011;28;20055;-79
2022/05/03 02:11:28;;;;;;;592.22;278.00;;;;;;;10.12;84.24;96004.88;5086262;28;20407;-78
2022/05/03 02:17:14;;;;;;;596.85;291.90;;;;;;;10.11;85.41;96004.06;5087030;28;20087;-79
2022/05/03 02:19:48;;;;;;;596.15;279.63;;;;;;;10.09;85.39;96011.78;5059930;28;20051;-79
2022/05/03 02:22:29;;;;;;;597.95;297.30;;;;;;;10.08;85.34;96015.63;5066696;28;20057;-81
2022/05/03 02:25:02;;;;;;;581.58;276.45;;;;;;;10.08;85.40;96015.63;5066646;28;20044;-81
2022/05/03 02:27:31;;;;;;;;;;;;;;;10.10;85.67;96023.44;5066963;28;20064;-80
2022/05/03 02:29:59;;;;;;;587.30;291.20;;;;;;;10.07;85.58;96018.66;5065574;28;19952;-80
2022/05/03 02:32:34;;;;;;;586.72;278.45;;;;;;;10.07;86.11;96013.19;5066098;28;20048;-82
2022/05/03 02:35:04;;;;;;;585.28;279.25;;;;;;;10.06;86.04;96009.69;5066821;28;20045;-79
2022/05/03 02:37:35;;;;;;;586.30;269.90;;;;;;;10.05;86.04;96016.25;5057844;28;20048;-79
2022/05/03 02:40:07;;;;;;;587.70;268.58;;;;;;;10.05;86.08;96010.00;5059454;28;20044;-81
2022/05/03 02:42:35;;;;;;;586.20;271.48;;;;;;;10.05;86.29;96005.38;5045756;28;20072;-80
2022/05/03 02:45:04;;;;;;;593.50;276.05;;;;;;;10.05;86.07;96005.38;5046073;28;20045;-81
2022/05/03 02:47:42;;;;;;;587.83;273.90;;;;;;;10.08;85.73;96004.75;5058069;28;20757;-78
2022/05/03 02:50:11;;;;;;;599.05;283.33;;;;;;;10.06;85.41;96004.25;5065625;28;20556;-79
2022/05/03 02:52:54;;;;;;;586.60;272.27;;;;;;;10.06;85.17;96006.97;5066537;28;20144;-79
2022/05/03 02:55:22;;;;;;;;;;;;;;;10.04;85.28;96003.78;5065515;28;20163;-81
2022/05/03 02:57:55;;;;;;;585.60;254.75;;;;;;;10.00;85.31;96002.81;5066306;28;20398;-78
2022/05/03 03:03:56;;;;;;;598.95;301.17;;;;;;;10.05;86.16;96005.38;5065737;28;20048;-80
2022/05/03 03:06:24;;;;;;;581.08;289.52;;;;;;;10.07;86.34;96007.75;5065828;28;20064;-80
2022/05/03 03:08:54;;;;;;;573.30;292.85;;;;;;;10.10;86.41;96007.13;5065651;28;20048;-81
2022/05/03 03:11:32;;;;;;;601.17;281.63;;;;;;;10.13;85.95;96004.56;5065470;28;20578;-80
2022/05/03 03:14:20;;;;;;;609.58;304.42;;;;;;;10.14;85.89;96008.09;5065432;28;20128;-80
2022/05/03 03:16:53;;;;;;;599.08;278.10;;;;;;;10.06;85.81;96012.41;5060117;28;20037;-80
2022/05/03 03:19:34;;;;;;;590.70;291.75;;;;;;;10.05;86.05;96013.53;5065251;28;20048;-81
2022/05/03 03:22:02;;;;;;;584.80;287.55;;;;;;;10.09;85.43;96011.78;5064665;28;20143;-80
2022/05/03 03:24:29;;;;;;;572.25;262.67;;;;;;;10.11;85.54;96012.25;5086166;28;20090;-80
2022/05/03 03:26:56;;;;;;;577.53;282.65;;;;;;;10.13;85.70;96012.72;5085177;28;20052;-80
2022/05/03 03:29:25;;;;;;;609.47;293.98;;;;;;;10.15;85.64;96007.75;5085278;28;20071;-80
2022/05/03 03:31:52;;;;;;;595.95;282.48;;;;;;;10.16;85.87;96006.63;5084919;28;20487;-80
2022/05/03 03:34:21;;;;;;;601.05;285.92;;;;;;;10.17;86.44;96008.22;5085459;28;20089;-80
2022/05/03 03:36:52;;;;;;;580.30;296.70;;;;;;;10.24;86.38;96006.97;5085806;28;20212;-80
2022/05/03 03:39:18;;;;;;;583.42;309.00;;;;;;;10.27;85.58;96017.19;5085003;28;20036;-80
2022/05/03 03:41:47;;;;;;;583.53;301.10;;;;;;;10.25;85.30;96003.94;5085018;28;20491;-81
2022/05/03 03:44:14;;;;;;;586.15;300.90;;;;;;;10.25;85.48;96003.13;5082050;28;20090;-80
2022/05/03 03:46:40;;;;;;;576.05;270.92;;;;;;;10.26;85.56;96002.00;5084757;28;20508;-81
2022/05/03 03:49:07;;;;;;;575.72;255.77;;;;;;;10.26;86.11;95993.84;5084513;28;20044;-80
2022/05/03 03:51:33;;;;;;;572.92;251.77;;;;;;;10.29;85.71;96004.09;5085485;28;20052;-80
2022/05/03 03:54:02;;;;;;;570.72;257.13;;;;;;;10.30;85.65;96002.97;5085261;28;20047;-81
2022/05/03 03:56:28;;;;;;;571.95;268.08;;;;;;;10.29;85.78;96009.53;5085053;28;20044;-81
2022/05/03 03:58:55;;;;;;;569.72;274.65;;;;;;;10.30;85.91;96011.13;5085223;28;20052;-82
2022/05/03 04:01:21;;;;;;;580.08;291.73;;;;;;;10.30;85.99;96014.63;5084700;28;20058;-80
2022/05/03 04:03:48;;;;;;;575.00;296.73;;;;;;;10.31;85.59;96008.06;5085433;28;20047;-80
2022/05/03 04:06:14;;;;;;;576.92;265.38;;;;;;;10.32;85.48;96012.38;5084498;28;20040;-81
2022/05/03 04:08:41;;;;;;;573.25;287.42;;;;;;;10.32;84.94;96008.88;5085517;28;20059;-81
2022/05/03 04:11:16;;;;;;;575.42;263.35;;;;;;;10.32;84.74;96019.75;5083827;28;20044;-80
2022/05/03 04:13:43;;;;;;;571.60;288.48;;;;;;;10.29;84.79;96014.97;5085044;28;20044;-80
2022/05/03 04:16:10;;;;;;;;;;;;;;;10.30;84.99;96011.13;5067546;28;20040;-80
2022/05/03 04:18:45;;;;;;;616.72;341.10;;;;;;;10.42;85.04;96014.75;5064139;28;20886;-80
2022/05/03 04:21:13;;;;;;;653.05;482.25;;;;;;;10.62;84.33;96015.97;5063374;28;20460;-80
2022/05/03 04:23:40;;;;;;;572.95;320.00;;;;;;;10.64;83.71;96016.44;5064954;28;20051;-79
2022/05/03 04:26:06;;;;;;;579.40;294.88;;;;;;;10.58;84.01;96022.41;5064670;28;20056;-80
2022/05/03 04:28:34;;;;;;;578.65;278.38;;;;;;;10.52;84.67;96019.06;5064622;28;20056;-80
2022/05/03 04:31:00;;;;;;;572.85;278.02;;;;;;;10.52;84.78;96019.06;5065316;28;20041;-80
2022/05/03 04:33:27;;;;;;;579.33;283.27;;;;;;;10.55;84.88;96023.84;5063902;28;20698;-80
2022/05/03 04:35:53;;;;;;;579.70;315.90;;;;;;;10.56;85.16;96025.44;5065398;28;20106;-80
2022/05/03 04:38:20;;;;;;;572.08;282.70;;;;;;;10.56;85.05;96025.44;5063772;28;20534;-79
2022/05/03 04:40:46;;;;;;;582.80;284.70;;;;;;;10.58;85.20;96028.63;5064523;28;20048;-79
2022/05/03 04:43:13;;;;;;;639.85;457.20;;;;;;;10.69;85.34;96029.88;5062940;28;20417;-80
2022/05/03 04:45:41;;;;;;;598.50;341.77;;;;;;;10.75;85.04;96033.22;5064598;28;20066;-81
2022/05/03 04:48:07;;;;;;;589.63;308.20;;;;;;;10.73;85.17;96035.47;5064188;28;20052;-80
2022/05/03 04:50:35;;;;;;;670.10;511.33;;;;;;;10.88;85.73;96037.66;5062969;28;20421;-79
2022/05/03 04:53:02;;;;;;;585.22;320.02;;;;;;;10.96;85.41;96044.19;5064247;28;20127;-78
2022/05/03 04:55:28;;;;;;;593.85;315.88;;;;;;;11.00;85.64;96049.78;5067768;28;20052;-80
2022/05/03 04:57:55;;;;;;;586.15;314.77;;;;;;;11.04;85.70;96045.28;5068465;28;20496;-79
2022/05/03 05:00:21;;;;;;;577.53;288.40;;;;;;;11.03;85.88;96049.94;5067456;28;20048;-78
2022/05/03 05:02:49;;;;;;;587.97;301.50;;;;;;;11.03;86.01;96049.94;5068541;28;20048;-79
2022/05/03 05:05:15;;;;;;;580.90;287.63;;;;;;;11.06;86.11;96048.47;5067546;28;20048;-79
2022/05/03 05:07:42;;;;;;;589.97;305.23;;;;;;;11.10;86.21;96046.69;5067895;28;20044;-78
2022/05/03 05:10:24;;;;;;;586.78;308.38;;;;;;;11.05;85.22;96047.66;5067350;28;20105;-79
2022/05/03 05:12:51;;;;;;;583.73;302.30;;;;;;;11.09;85.27;96043.16;5067414;28;20689;-79
2022/05/03 05:15:18;;;;;;;579.45;305.98;;;;;;;11.12;85.43;96037.06;5067679;28;20295;-78
2022/05/03 05:17:44;;;;;;;585.65;300.17;;;;;;;11.15;85.29;96043.78;5068325;28;20044;-78
2022/05/03 05:20:12;;;;;;;576.55;299.40;;;;;;;11.17;85.77;96050.50;5067906;28;20048;-79
2022/05/03 05:22:39;;;;;;;579.35;326.80;;;;;;;11.19;85.48;96050.97;5066769;28;20519;-79
2022/05/03 05:25:06;;;;;;;581.90;309.70;;;;;;;11.23;85.66;96043.75;5067312;28;20049;-80
2022/05/03 05:27:32;;;;;;;567.97;294.83;;;;;;;11.23;83.97;96049.19;5067025;28;20052;-80
2022/05/03 05:29:59;;;;;;;578.97;305.88;;;;;;;11.23;82.95;96046.47;5067619;28;20044;-79
2022/05/03 05:32:25;;;;;;;585.33;309.23;;;;;;;11.24;83.27;96047.25;5066549;28;20056;-79
2022/05/03 05:34:52;;;;;;;584.95;301.63;;;;;;;11.26;83.58;96052.38;5067324;28;20047;-79
2022/05/03 05:37:19;;;;;;;572.13;296.02;;;;;;;11.28;83.68;96050.13;5066951;28;20070;-79
2022/05/03 05:39:46;;;;;;;574.97;301.63;;;;;;;11.25;83.95;96051.56;5066613;28;20043;-80
2022/05/03 05:42:12;;;;;;;571.95;306.33;;;;;;;11.26;84.10;96060.56;5067400;28;20052;-81
2022/05/03 05:44:39;;;;;;;571.53;282.33;;;;;;;11.23;84.10;96053.84;5066501;28;20056;-79
2022/05/03 05:47:06;;;;;;;590.40;366.92;;;;;;;11.22;84.29;96053.03;5067577;28;20052;-79
2022/05/03 05:49:33;;;;;;;597.50;402.52;;;;;;;11.26;84.29;96057.81;5066591;28;20055;-78
2022/05/03 05:53:31;;;;;;;565.30;254.30;;;;;;;11.32;84.40;96061.94;5067081;28;20059;-77
2022/05/03 05:54:46;;;;;;;580.78;334.45;;;;;;;11.31;84.03;96060.34;5057393;28;20045;-77
2022/05/03 05:57:13;;;;;;;577.78;318.08;;;;;;;11.29;84.05;96062.63;5046371;28;20131;-76
2022/05/03 05:59:39;;;;;;;577.13;310.95;;;;;;;11.34;84.12;96059.72;5049489;28;20413;-77
2022/05/03 06:02:05;;;;;;;591.00;344.45;;;;;;;11.37;83.72;96061.75;5065993;28;20037;-78
2022/05/03 06:04:33;;;;;;;589.58;355.00;;;;;;;11.43;84.00;96060.44;5066611;28;20048;-77
2022/05/03 06:07:00;;;;;;;582.83;358.45;;;;;;;11.52;84.05;96065.84;5065760;28;20132;-77
2022/05/03 06:09:26;;;;;;;596.80;391.58;;;;;;;11.56;84.29;96067.59;5066380;28;20053;-75
2022/05/03 06:11:54;;;;;;;581.15;376.00;;;;;;;11.61;84.36;96072.84;5065782;28;20048;-77
2022/05/03 06:14:21;;;;;;;605.20;399.10;;;;;;;11.52;82.58;96066.63;5066192;28;20056;-78
2022/05/03 06:16:50;;;;;;;587.42;355.58;;;;;;;11.57;82.34;96069.19;5066652;28;20047;-77
2022/05/03 06:19:17;;;;;;;581.45;326.17;;;;;;;11.64;82.19;96074.91;5066342;28;20044;-79
2022/05/03 06:21:44;;;;;;;582.90;360.63;;;;;;;11.68;82.18;96061.41;5066383;28;20063;-77
2022/05/03 06:24:11;;;;;;;586.58;391.63;;;;;;;11.56;81.75;96064.84;5065767;28;20044;-78
2022/05/03 06:26:38;;;;;;;321.80;110.90;;;;;;;11.43;80.91;96068.63;5067368;28;20261;-78
2022/05/03 06:29:06;;;;;;;554.17;244.43;;;;;;;11.49;80.96;96068.13;5065337;28;20060;-77
2022/05/03 06:31:33;;;;;;;682.58;553.35;;;;;;;11.66;81.62;96067.19;5065212;28;20414;-77
2022/05/03 06:34:01;;;;;;;585.38;334.83;;;;;;;11.63;80.32;96070.56;5066027;28;20063;-77
2022/05/03 06:36:27;;;;;;;585.08;318.15;;;;;;;11.60;80.07;96067.72;5065673;28;20040;-77
2022/05/03 06:38:54;;;;;;;573.42;306.77;;;;;;;11.56;80.71;96072.25;5065864;28;20045;-76
2022/05/03 06:41:20;;;;;;;571.78;290.83;;;;;;;11.52;80.91;96072.09;5065553;28;20051;-77
2022/05/03 06:43:47;;;;;;;567.72;300.85;;;;;;;11.58;81.65;96076.22;5066112;28;20744;-77
2022/05/03 06:46:15;;;;;;;578.17;315.33;;;;;;;11.48;81.26;96088.34;5065257;28;20049;-77
2022/05/03 06:48:42;;;;;;;582.03;359.02;;;;;;;11.63;82.04;96086.16;5066746;28;20052;-77
2022/05/03 06:51:08;;;;;;;575.78;330.63;;;;;;;11.60;81.67;96081.38;5064859;28;20053;-78
2022/05/03 06:53:35;;;;;;;563.33;310.17;;;;;;;11.55;81.73;96087.81;5066593;28;20053;-77
2022/05/03 06:56:01;;;;;;;572.75;325.30;;;;;;;11.62;82.36;96090.81;5064875;28;20040;-76
2022/05/03 06:58:28;;;;;;;578.97;350.95;;;;;;;11.68;82.14;96096.84;5066106;28;20051;-77
2022/05/03 07:00:54;;;;;;;575.03;356.90;;;;;;;11.64;81.38;96102.19;5065585;28;20045;-77
2022/05/03 07:03:22;;;;;;;586.22;365.45;;;;;;;11.55;82.60;96101.44;5065336;28;20055;-78
2022/05/03 07:05:49;;;;;;;584.00;389.38;;;;;;;11.61;83.10;96104.78;5065833;28;20066;-77
2022/05/03 07:08:15;;;;;;;585.33;383.83;;;;;;;11.78;83.13;96107.38;5065328;28;20048;-79
2022/05/03 07:10:42;;;;;;;591.65;403.35;;;;;;;11.82;83.36;96107.56;5065674;28;20067;-77
2022/05/03 07:13:13;;;;;;;449.15;313.80;;;;;;;11.96;83.38;96103.44;5065046;28;20052;-77
2022/05/03 07:15:39;;;;;;;589.05;409.17;;;;;;;12.00;82.66;96098.09;5065853;28;20132;-79
2022/05/03 07:23:32;;;;;;;445.48;332.15;;;;;;;12.44;81.46;96101.28;5057684;28;20051;-77
2022/05/03 07:25:59;;;;;;;454.10;328.90;;;;;;;12.60;81.41;96104.97;5059639;28;20510;-75
2022/05/03 07:28:26;;;;;;;604.88;459.92;;;;;;;12.70;80.89;96101.81;5045208;28;20052;-78
2022/05/03 07:30:52;;;;;;;613.75;481.75;;;;;;;12.78;79.64;96100.91;5044584;28;20060;-79
2022/05/03 07:33:19;;;;;;;641.22;527.95;;;;;;;13.01;80.10;96097.78;5044165;28;20423;-77
2022/05/03 07:35:45;;;;;;;607.55;452.80;;;;;;;13.27;79.80;96105.69;5044520;28;20048;-78
2022/05/03 07:38:13;;;;;;;604.42;449.33;;;;;;;13.47;79.73;96104.00;5045358;28;20040;-78
2022/05/03 07:40:40;;;;;;;611.38;472.13;;;;;;;13.62;76.45;96102.47;5044342;28;20045;-77
2022/05/03 07:43:06;;;;;;;600.97;428.88;;;;;;;13.88;76.69;96107.56;5044812;28;20721;-77
2022/05/03 07:45:33;;;;;;;600.95;440.90;;;;;;;14.39;75.61;96105.16;5055800;28;20211;-77
2022/05/03 07:47:59;;;;;;;460.83;343.75;;;;;;;14.92;72.41;96111.31;5064996;28;20059;-78
2022/05/03 07:50:26;;;;;;;456.90;340.67;;;;;;;15.07;70.52;96113.28;5064108;28;20052;-78
2022/05/03 07:52:52;;;;;;;471.13;387.98;;;;;;;15.31;69.58;96109.59;5064262;28;20415;-75
2022/05/03 07:55:20;;;;;;;482.48;429.58;;;;;;;15.49;68.36;96108.06;5064862;28;20489;-75
2022/05/03 07:57:47;;;;;;;471.65;376.02;;;;;;;15.83;68.09;96106.56;5064189;28;20569;-76
2022/05/03 08:00:24;;;;;;;643.35;540.60;;;;;;;16.12;65.70;96112.66;5055999;28;20048;-75
2022/05/03 08:02:50;;;;;;;631.58;557.53;;;;;;;17.12;62.86;96103.66;5053314;28;20056;-77
2022/05/03 08:05:17;;;;;;;638.03;484.48;;;;;;;17.97;57.90;96107.81;5064596;28;20519;-77
2022/05/03 08:07:44;;;;;;;580.00;379.70;;;;;;;18.90;59.70;96117.28;5064399;28;20139;-76
2022/05/03 08:10:10;;;;;;;562.85;329.27;;;;;;;19.69;53.49;96107.00;5064198;28;20040;-76
2022/05/03 08:12:38;;;;;;;801.38;724.30;;;;;;;19.04;52.43;96108.34;5064355;28;20056;-76
2022/05/03 08:15:06;;;;;;;577.53;381.58;;;;;;;18.44;54.56;96113.97;5063381;28;20040;-78
2022/05/03 08:17:32;;;;;;;777.22;702.95;;;;;;;18.03;56.23;96111.03;5064585;28;20415;-76
2022/05/03 08:19:59;;;;;;;838.45;761.90;;;;;;;17.39;57.11;96112.78;5063913;28;20526;-75
2022/05/03 08:22:26;;;;;;;798.00;723.05;;;;;;;16.93;56.41;96121.81;5064427;28;20044;-75
2022/05/03 08:24:52;;;;;;;753.75;680.72;;;;;;;16.49;59.07;96131.50;5063998;28;20044;-76
2022/05/03 08:27:19;;;;;;;788.20;713.92;;;;;;;16.25;60.47;96133.38;5064726;28;20060;-77
2022/05/03 08:29:47;;;;;;;790.13;716.15;;;;;;;15.85;62.25;96131.69;5066882;28;20166;-76
2022/05/03 08:32:13;;;;;;;751.10;677.53;;;;;;;15.69;63.28;96133.66;5067794;28;20051;-76
2022/05/03 08:34:40;;;;;;;697.30;625.67;;;;;;;15.65;63.78;96139.06;5067935;28;20052;-75
2022/05/03 08:42:34;;;;;;;713.05;641.00;;;;;;;15.57;64.79;96141.97;5067406;28;20464;-74
2022/05/03 08:45:02;;;;;;;674.90;604.10;;;;;;;15.27;65.00;96142.41;5069064;28;20102;-76
2022/05/03 08:47:29;;;;;;;701.35;629.95;;;;;;;15.22;64.92;96147.38;5067617;28;20056;-75
2022/05/03 08:50:02;;;;;;;610.67;509.90;;;;;;;15.27;66.92;96145.16;5068451;28;20049;-76
2022/05/03 08:52:33;;;;;;;678.95;608.33;;;;;;;15.33;68.55;96135.50;5067513;28;20051;-76
2022/05/03 08:55:00;;;;;;;611.85;481.27;;;;;;;15.38;67.31;96143.47;5067850;28;20135;-75
2022/05/03 08:57:27;;;;;;;616.20;490.90;;;;;;;15.46;67.12;96135.44;5067791;28;20051;-76
2022/05/03 08:59:54;;;;;;;625.70;544.60;;;;;;;15.59;65.66;96136.91;5067251;28;20593;-76
2022/05/03 09:02:22;;;;;;;719.22;647.22;;;;;;;15.67;66.25;96133.25;5067620;28;20058;-76
2022/05/03 09:04:49;;;;;;;656.50;584.20;;;;;;;15.59;64.55;96128.69;5067642;28;20075;-75
2022/05/03 09:07:19;;;;;;;723.15;650.22;;;;;;;15.63;64.93;96129.59;5068039;28;20040;-76
2022/05/03 09:09:45;;;;;;;623.45;514.63;;;;;;;15.82;66.50;96129.69;5067094;28;20041;-76
2022/05/03 09:12:22;;;;;;;612.55;489.17;;;;;;;15.98;67.96;96126.09;5066944;28;20576;-75
2022/05/03 09:14:49;;;;;;;660.45;569.13;;;;;;;16.14;67.49;96126.84;5067299;28;20083;-77
2022/05/03 09:17:18;;;;;;;659.13;583.63;;;;;;;16.27;67.22;96133.78;5067032;28;20059;-76
2022/05/03 09:19:45;;;;;;;681.45;608.28;;;;;;;16.42;64.95;96124.69;5067870;28;20056;-76
2022/05/03 09:25:05;;;;;;;682.25;608.33;;;;;;;16.53;61.56;96132.38;5067717;28;20052;-75
2022/05/03 09:27:32;;;;;;;710.03;635.75;;;;;;;16.60;63.13;96127.81;5066701;28;20520;-75
2022/05/03 09:30:00;;;;;;;709.72;634.75;;;;;;;16.84;63.75;96121.22;5067282;28;20045;-75
2022/05/03 09:32:37;;;;;;;672.38;600.95;;;;;;;16.94;60.51;96120.63;5058919;28;20052;-75
2022/05/03 09:35:06;;;;;;;676.92;604.72;;;;;;;16.72;55.41;96118.66;5066409;28;20055;-76
2022/05/03 09:37:39;;;;;;;684.17;612.35;;;;;;;16.70;53.37;96126.41;5067685;28;20062;-76
2022/05/03 09:40:08;;;;;;;493.63;439.85;;;;;;;16.77;55.16;96115.59;5065959;28;20481;-77
2022/05/03 09:42:36;;;;;;;851.55;773.50;;;;;;;16.96;58.21;96117.50;5065004;28;20433;-75
2022/05/03 09:45:05;;;;;;;710.75;638.60;;;;;;;17.12;55.06;96125.66;5065859;28;20131;-76
2022/05/03 09:47:34;;;;;;;727.95;654.75;;;;;;;17.27;56.57;96119.25;5067185;28;20503;-75
2022/05/03 09:50:01;;;;;;;756.92;683.85;;;;;;;17.42;58.52;96112.81;5066944;28;20127;-76
2022/05/03 09:52:31;;;;;;;730.60;658.17;;;;;;;17.45;58.54;96112.09;5046030;28;20048;-75
2022/05/03 09:55:00;;;;;;;676.85;605.95;;;;;;;17.55;58.07;96115.41;5047079;28;20052;-74
2022/05/03 09:57:29;;;;;;;7.85;6.70;;;;;;;17.68;58.00;96112.06;5046106;28;20056;-77
2022/05/03 09:59:57;;;;;;;723.58;650.45;;;;;;;17.76;57.61;96115.78;5047122;28;20048;-75
2022/05/03 10:02:25;;;;;;;7.55;5.70;;;;;;;17.72;56.21;96112.94;5045524;28;20448;-77
2022/05/03 10:04:53;;;;;;;8.73;5.90;;;;;;;17.86;58.13;96108.84;5047400;28;20530;-76
2022/05/03 10:07:20;;;;;;;15.18;7.07;;;;;;;17.95;57.30;96112.88;5045677;28;20048;-76
2022/05/03 10:09:48;;;;;;;16.77;8.85;;;;;;;17.92;59.01;96110.91;5046788;28;20503;-75
2022/05/03 10:12:16;;;;;;;14.43;8.95;;;;;;;17.92;62.13;96110.91;5045326;28;20449;-76
2022/05/03 10:14:44;;;;;;;562.60;516.55;;;;;;;17.92;59.13;96108.13;5042538;28;20056;-75
2022/05/03 10:22:47;;;;;;;19.05;9.95;;;;;;;18.45;64.34;96102.53;5041497;28;20098;-75
2022/05/03 10:25:15;;;;;;;18.08;10.00;;;;;;;18.82;63.52;96101.81;5045506;28;20459;-76
2022/05/03 10:27:55;;;;;;;16.88;8.82;;;;;;;18.70;55.27;96105.63;5046634;28;20049;-74
2022/05/03 10:30:24;;;;;;;23.35;10.65;;;;;;;18.76;56.30;96098.63;5045667;28;20083;-76
2022/05/03 10:33:28;;;;;;;21.23;10.18;;;;;;;18.77;55.87;96096.66;5045739;28;20463;-76
2022/05/03 10:35:55;;;;;;;17.88;8.18;;;;;;;18.78;52.97;96092.72;5046541;28;20468;-76
2022/05/03 10:38:36;;;;;;;18.08;7.68;;;;;;;18.79;54.03;96088.78;5045193;28;20056;-74
2022/05/03 10:41:08;;;;;;;49.60;34.60;;;;;;;18.93;56.54;96088.94;5045587;28;20049;-78
2022/05/03 10:43:37;;;;;;;17.50;8.73;;;;;;;19.21;56.00;96090.38;5045943;28;20061;-77
2022/05/03 10:46:10;;;;;;;16.40;8.25;;;;;;;19.28;52.61;96093.22;5060680;28;20075;-76
2022/05/03 10:48:37;;;;;;;19.63;8.88;;;;;;;19.18;58.23;96085.63;5066302;28;20052;-76
2022/05/03 10:51:05;;;;;;;26.25;7.88;;;;;;;19.30;51.64;96085.34;5063883;28;20066;-77
2022/05/03 10:53:33;;;;;;;22.02;7.18;;;;;;;19.44;48.11;96079.94;5065955;28;20475;-77
2022/05/03 10:56:22;;;;;;;12.07;6.93;;;;;;;19.68;52.60;96084.13;5065123;28;20866;-77
2022/05/03 10:59:06;;;;;;;16.63;8.65;;;;;;;19.79;52.44;96073.94;5065905;28;20048;-78
2022/05/03 11:01:33;;;;;;;15.65;9.18;;;;;;;19.88;50.00;96070.81;5057892;28;20064;-76
2022/05/03 11:04:11;;;;;;;14.02;8.45;;;;;;;19.95;51.79;96076.41;5065143;28;20052;-77
2022/05/03 11:06:49;;;;;;;13.43;7.70;;;;;;;20.08;50.68;96074.88;5065798;28;20101;-76
2022/05/03 11:09:25;;;;;;;11.52;7.55;;;;;;;20.27;50.15;96073.03;5064351;28;20105;-77
2022/05/03 11:11:56;;;;;;;6.55;5.50;;;;;;;20.49;50.77;96060.91;5065342;28;20037;-77
2022/05/03 11:14:50;;;;;;;9.75;6.63;;;;;;;20.56;47.24;96066.44;5064072;28;20518;-76
2022/05/03 11:17:17;;;;;;;16.50;7.32;;;;;;;20.53;46.27;96060.91;5064913;28;20048;-77
2022/05/03 11:19:55;;;;;;;9.50;5.93;;;;;;;20.68;50.16;96045.94;5065669;28;20123;-77
2022/05/03 11:22:24;;;;;;;10.52;6.25;;;;;;;20.86;48.09;96051.50;5063759;28;20143;-76
2022/05/03 11:24:53;;;;;;;6.82;5.03;;;;;;;21.00;46.33;96050.75;5065318;28;20049;-78
2022/05/03 11:27:22;;;;;;;8.50;5.30;;;;;;;21.11;45.59;96052.34;5064023;28;20056;-77
2022/05/03 11:29:57;;;;;;;8.32;6.28;;;;;;;21.13;46.15;96049.19;5065673;28;20055;-77
2022/05/03 11:32:29;;;;;;;11.15;6.03;;;;;;;21.02;47.58;96046.41;5064130;28;20053;-75
2022/05/03 11:35:04;;;;;;;9.10;6.55;;;;;;;20.91;46.27;96037.28;5064797;28;20041;-78
2022/05/03 11:37:31;;;;;;;9.27;6.82;;;;;;;20.87;48.56;96041.22;5063841;28;20056;-77
2022/05/03 11:40:03;;;;;;;8.25;6.68;;;;;;;20.83;45.75;96030.19;5063568;28;20638;-77
2022/05/03 11:42:37;;;;;;;10.85;7.50;;;;;;;20.81;45.89;96038.06;5063162;28;20056;-73
2022/05/03 11:45:04;;;;;;;13.45;7.03;;;;;;;20.73;50.12;96031.72;5062778;28;20127;-76
2022/05/03 11:47:30;;;;;;;10.10;6.38;;;;;;;20.73;47.60;96026.19;5064461;28;20049;-74
2022/05/03 11:49:57;;;;;;;8.32;5.93;;;;;;;20.73;48.72;96023.44;5063732;28;20052;-75